createdAt,value
2022-11-18T00:01:05.462Z,58.56
2022-11-18T00:03:31.899Z,59.83
2022-11-18T00:05:58.409Z,59.02
2022-11-18T00:08:25.855Z,59.06
2022-11-18T00:10:52.573Z,59.31
2022-11-18T00:13:37.360Z,59.12
2022-11-18T00:16:08.782Z,59.21
2022-11-18T00:18:35.796Z,59.16
2022-11-18T00:21:10.563Z,59.10
2022-11-18T00:23:37.566Z,58.90
2022-11-18T00:26:12.857Z,59.18
2022-11-18T00:28:40.155Z,58.91
2022-11-18T00:31:08.856Z,58.65
2022-11-18T00:33:36.915Z,58.66
2022-11-18T00:36:09.370Z,59.06
2022-11-18T00:38:35.935Z,59.16
2022-11-18T00:41:03.808Z,58.64
2022-11-18T00:43:30.407Z,58.36
2022-11-18T00:45:57.546Z,58.06
2022-11-18T00:48:24.290Z,58.32
2022-11-18T00:50:52.079Z,58.09
2022-11-18T00:53:20.142Z,57.88
2022-11-18T00:55:46.960Z,59.32
2022-11-18T00:58:16.435Z,58.78
2022-11-18T01:00:48.622Z,58.33
2022-11-18T01:03:15.840Z,57.92
2022-11-18T01:05:42.519Z,57.55
2022-11-18T01:08:10.174Z,57.42
2022-11-18T01:10:37.511Z,57.58
2022-11-18T01:13:20.175Z,57.92
2022-11-18T01:15:54.955Z,57.78
2022-11-18T01:18:24.252Z,57.60
2022-11-18T01:20:51.019Z,58.20
2022-11-18T01:23:19.066Z,59.01
2022-11-18T01:25:46.758Z,60.55
2022-11-18T01:28:15.480Z,60.71
2022-11-18T01:30:44.275Z,60.17
2022-11-18T01:33:10.775Z,61.62
2022-11-18T01:35:44.207Z,61.77
2022-11-18T01:38:12.368Z,61.60
2022-11-18T01:40:39.615Z,61.13
2022-11-18T01:43:11.965Z,60.79
2022-11-18T01:45:39.219Z,60.87
2022-11-18T01:48:28.980Z,60.97
2022-11-18T01:50:59.362Z,60.24
2022-11-18T01:53:28.240Z,60.38
2022-11-18T01:55:56.664Z,60.00
2022-11-18T01:58:37.915Z,60.14
2022-11-18T02:01:05.814Z,59.51
2022-11-18T02:03:33.333Z,59.44
2022-11-18T02:06:00.706Z,59.49
2022-11-18T02:08:28.430Z,59.29
2022-11-18T02:10:54.956Z,59.17
2022-11-18T02:13:22.089Z,58.88
2022-11-18T02:16:01.145Z,59.24
2022-11-18T02:18:55.214Z,58.85
2022-11-18T02:21:48.750Z,58.89
2022-11-18T02:24:27.832Z,59.77
2022-11-18T02:27:29.640Z,59.08
2022-11-18T02:29:59.718Z,60.30
2022-11-18T02:32:48.437Z,59.69
2022-11-18T02:35:24.261Z,58.82
2022-11-18T02:37:55.245Z,58.53
2022-11-18T02:40:25.958Z,58.99
2022-11-18T02:42:56.684Z,58.94
2022-11-18T02:45:23.689Z,58.25
2022-11-18T02:47:50.846Z,58.18
2022-11-18T02:50:21.365Z,57.85
2022-11-18T02:52:53.411Z,58.86
2022-11-18T02:55:20.451Z,58.04
2022-11-18T02:57:47.810Z,57.93
2022-11-18T03:00:14.988Z,57.85
2022-11-18T03:02:49.829Z,58.14
2022-11-18T03:05:26.268Z,58.33
2022-11-18T03:07:57.953Z,58.44
2022-11-18T03:10:25.968Z,58.36
2022-11-18T03:13:09.223Z,58.42
2022-11-18T03:15:53.807Z,58.92
2022-11-18T03:18:27.913Z,58.28
2022-11-18T03:21:10.466Z,58.05
2022-11-18T03:23:45.600Z,58.41
2022-11-18T03:26:17.869Z,59.08
2022-11-18T03:29:10.966Z,59.36
2022-11-18T03:31:40.915Z,60.12
2022-11-18T03:34:19.258Z,60.82
2022-11-18T03:36:51.746Z,61.03
2022-11-18T03:39:20.549Z,61.69
2022-11-18T03:41:51.694Z,62.36
2022-11-18T03:44:23.272Z,62.46
2022-11-18T03:46:54.939Z,63.51
2022-11-18T03:49:30.339Z,62.98
2022-11-18T03:52:03.355Z,62.33
2022-11-18T03:54:31.636Z,63.31
2022-11-18T03:57:00.641Z,63.88
2022-11-18T03:59:38.742Z,63.61
2022-11-18T04:02:15.043Z,63.40
2022-11-18T04:04:42.364Z,63.13
2022-11-18T04:10:00.277Z,64.21
2022-11-18T04:12:28.250Z,63.44
2022-11-18T04:14:55.529Z,63.93
2022-11-18T04:17:24.158Z,64.08
2022-11-18T04:19:51.146Z,63.84
2022-11-18T04:22:19.250Z,63.59
2022-11-18T04:24:45.950Z,63.91
2022-11-18T04:27:12.966Z,63.79
2022-11-18T04:29:39.602Z,64.46
2022-11-18T04:32:06.226Z,64.09
2022-11-18T04:34:32.710Z,64.49
2022-11-18T04:36:59.425Z,64.89
2022-11-18T04:39:25.932Z,64.59
2022-11-18T04:41:55.452Z,64.88
2022-11-18T04:44:26.679Z,64.35
2022-11-18T04:46:54.041Z,64.15
2022-11-18T04:49:20.877Z,63.90
2022-11-18T04:51:48.187Z,64.46
2022-11-18T04:54:15.354Z,63.83
2022-11-18T04:56:47.513Z,64.19
2022-11-18T04:59:18.020Z,64.00
2022-11-18T05:01:45.186Z,63.75
2022-11-18T05:04:14.344Z,63.83
2022-11-18T05:06:41.066Z,64.20
2022-11-18T05:09:07.872Z,63.82
2022-11-18T05:11:53.162Z,64.09
2022-11-18T05:14:19.822Z,64.04
2022-11-18T05:16:46.363Z,63.79
2022-11-18T05:19:13.000Z,63.70
2022-11-18T05:21:39.926Z,64.17
2022-11-18T05:24:06.765Z,64.03
2022-11-18T05:26:33.581Z,63.74
2022-11-18T05:29:00.219Z,63.67
2022-11-18T05:31:26.794Z,64.00
2022-11-18T05:33:53.365Z,63.64
2022-11-18T05:36:21.017Z,64.13
2022-11-18T05:38:47.811Z,63.32
2022-11-18T05:41:34.284Z,64.15
2022-11-18T05:44:01.518Z,63.40
2022-11-18T05:46:28.663Z,63.66
2022-11-18T05:48:55.411Z,64.68
2022-11-18T05:51:22.033Z,67.37
2022-11-18T05:53:49.626Z,67.75
2022-11-18T05:56:20.672Z,67.11
2022-11-18T05:58:47.405Z,66.41
2022-11-18T06:01:18.279Z,66.36
2022-11-18T06:03:44.929Z,65.52
2022-11-18T06:06:13.431Z,65.85
2022-11-18T06:08:46.463Z,65.40
2022-11-18T06:11:15.879Z,66.09
2022-11-18T06:13:50.396Z,68.76
2022-11-18T06:16:20.739Z,67.66
2022-11-18T06:18:47.280Z,67.23
2022-11-18T06:21:23.859Z,67.77
2022-11-18T06:23:50.634Z,67.36
2022-11-18T06:26:17.505Z,66.76
2022-11-18T06:28:45.638Z,67.37
2022-11-18T06:31:12.811Z,66.89
2022-11-18T06:33:39.453Z,66.96
2022-11-18T06:36:06.319Z,66.23
2022-11-18T06:38:34.397Z,66.38
2022-11-18T06:41:01.984Z,67.15
2022-11-18T06:43:44.035Z,67.80
2022-11-18T06:46:32.278Z,67.68
2022-11-18T06:48:59.226Z,67.22
2022-11-18T06:51:26.703Z,66.53
2022-11-18T06:53:53.789Z,66.39
2022-11-18T06:56:21.611Z,66.46
2022-11-18T06:58:48.302Z,66.44
2022-11-18T07:01:21.756Z,67.01
2022-11-18T07:03:48.685Z,66.46
2022-11-18T07:06:18.208Z,66.30
2022-11-18T07:08:47.799Z,66.61
2022-11-18T07:11:16.771Z,66.94
2022-11-18T07:13:44.140Z,65.85
2022-11-18T07:16:18.917Z,65.67
2022-11-18T07:18:46.789Z,65.47
2022-11-18T07:21:15.387Z,65.26
2022-11-18T07:23:42.210Z,65.45
2022-11-18T07:26:09.048Z,65.23
2022-11-18T07:28:36.214Z,64.95
2022-11-18T07:31:10.941Z,65.17
2022-11-18T07:33:38.211Z,64.97
2022-11-18T07:36:10.393Z,65.43
2022-11-18T07:38:37.106Z,65.48
2022-11-18T07:41:18.003Z,65.80
2022-11-18T07:43:46.220Z,65.26
2022-11-18T07:46:13.896Z,65.83
2022-11-18T07:48:41.684Z,66.45
2022-11-18T07:51:08.760Z,66.33
2022-11-18T07:53:36.302Z,65.30
2022-11-18T07:56:03.782Z,65.37
2022-11-18T07:58:30.675Z,65.05
2022-11-18T08:00:57.693Z,64.76
2022-11-18T08:03:28.019Z,64.51
2022-11-18T08:05:59.769Z,64.49
2022-11-18T08:08:26.769Z,64.01
2022-11-18T08:10:57.446Z,63.86
2022-11-18T08:13:25.212Z,63.48
2022-11-18T08:15:52.213Z,63.82
2022-11-18T08:18:18.926Z,64.11
2022-11-18T08:20:45.614Z,63.81
2022-11-18T08:23:12.809Z,63.61
2022-11-18T08:25:40.549Z,63.79
2022-11-18T08:28:07.501Z,64.59
2022-11-18T08:30:34.955Z,63.75
2022-11-18T08:33:01.787Z,63.61
2022-11-18T08:35:29.862Z,63.53
2022-11-18T08:37:56.433Z,63.22
2022-11-18T08:40:23.165Z,63.95
2022-11-18T08:42:49.681Z,64.75
2022-11-18T08:45:16.457Z,64.40
2022-11-18T08:47:42.911Z,64.37
2022-11-18T08:50:11.288Z,64.19
2022-11-18T08:52:38.380Z,64.13
2022-11-18T08:55:05.163Z,64.55
2022-11-18T08:57:31.686Z,64.18
2022-11-18T08:59:58.261Z,64.00
2022-11-18T09:02:24.822Z,65.08
2022-11-18T09:04:51.941Z,65.20
2022-11-18T09:07:19.926Z,64.15
2022-11-18T09:09:46.461Z,63.51
2022-11-18T09:12:15.059Z,63.43
2022-11-18T09:17:29.712Z,62.60
2022-11-18T09:19:56.147Z,62.04
2022-11-18T09:22:22.660Z,63.11
2022-11-18T09:24:49.675Z,62.15
2022-11-18T09:27:17.564Z,62.29
2022-11-18T09:29:45.049Z,63.15
2022-11-18T09:32:11.814Z,61.78
2022-11-18T09:34:38.352Z,61.57
2022-11-18T09:37:06.507Z,60.68
2022-11-18T09:39:37.083Z,60.94
2022-11-18T09:42:26.473Z,60.28
2022-11-18T09:45:24.732Z,60.08
2022-11-18T09:47:51.925Z,59.31
2022-11-18T09:53:16.222Z,57.98
2022-11-18T09:55:42.880Z,57.33
2022-11-18T09:58:15.749Z,56.65
2022-11-18T10:00:42.455Z,56.12
2022-11-18T10:03:35.618Z,55.44
2022-11-18T10:06:23.858Z,55.78
2022-11-18T10:09:02.791Z,54.97
2022-11-18T10:11:40.223Z,54.84
2022-11-18T10:14:08.099Z,54.62
2022-11-18T10:17:04.071Z,56.29
2022-11-18T10:19:33.400Z,56.07
2022-11-18T10:22:23.794Z,56.63
2022-11-18T10:24:56.259Z,57.38
2022-11-18T10:27:35.092Z,56.84
2022-11-18T10:30:01.726Z,57.27
2022-11-18T10:32:28.439Z,56.37
2022-11-18T10:34:57.384Z,57.04
2022-11-18T10:37:45.350Z,59.34
2022-11-18T10:40:27.213Z,58.52
2022-11-18T10:42:53.757Z,57.28
2022-11-18T10:45:23.345Z,56.61
2022-11-18T10:48:09.955Z,58.09
2022-11-18T10:50:41.865Z,57.22
2022-11-18T10:53:33.943Z,56.50
2022-11-18T10:56:06.298Z,59.92
2022-11-18T10:58:37.503Z,59.55
2022-11-18T11:01:08.931Z,62.29
2022-11-18T11:03:38.156Z,61.01
2022-11-18T11:06:26.917Z,62.36
2022-11-18T11:08:54.447Z,63.45
2022-11-18T11:11:31.615Z,64.55
2022-11-18T11:14:19.516Z,63.27
2022-11-18T11:16:59.329Z,62.71
2022-11-18T11:19:41.940Z,60.65
2022-11-18T11:22:10.379Z,58.35
2022-11-18T11:24:36.880Z,57.53
2022-11-18T11:30:21.240Z,56.79
2022-11-18T11:33:06.004Z,57.41
2022-11-18T11:35:44.272Z,58.91
2022-11-18T11:38:46.244Z,60.24
2022-11-18T11:41:20.792Z,59.35
2022-11-18T11:44:24.665Z,60.84
2022-11-18T11:47:22.903Z,61.99
2022-11-18T11:49:52.473Z,60.67
2022-11-18T11:52:29.700Z,61.60
2022-11-18T11:54:56.134Z,61.30
2022-11-18T11:57:47.125Z,60.66
2022-11-18T12:00:15.330Z,60.91
2022-11-18T12:03:19.503Z,60.03
2022-11-18T12:05:46.206Z,57.46
2022-11-18T12:08:13.516Z,57.25
2022-11-18T12:10:54.033Z,57.15
2022-11-18T12:13:48.484Z,56.41
2022-11-18T12:16:18.844Z,55.81
2022-11-18T12:18:58.090Z,55.41
2022-11-18T12:21:46.500Z,54.27
2022-11-18T12:24:27.273Z,54.04
2022-11-18T12:26:53.742Z,53.42
2022-11-18T12:29:20.496Z,53.33
2022-11-18T12:31:49.068Z,52.53
2022-11-18T12:34:20.477Z,52.08
2022-11-18T12:36:47.389Z,51.81
2022-11-18T12:39:26.182Z,50.99
2022-11-18T12:42:17.868Z,50.48
2022-11-18T12:44:52.267Z,50.28
2022-11-18T12:47:37.128Z,50.36
2022-11-18T12:50:10.804Z,50.09
2022-11-18T12:52:37.224Z,49.82
2022-11-18T12:55:05.086Z,49.97
2022-11-18T12:57:34.945Z,50.11
2022-11-18T13:00:28.549Z,50.42
2022-11-18T13:02:57.691Z,50.50
2022-11-18T13:05:25.351Z,50.64
2022-11-18T13:08:15.969Z,50.61
2022-11-18T13:11:16.891Z,50.84
2022-11-18T13:13:44.179Z,51.07
2022-11-18T13:16:44.565Z,51.12
2022-11-18T13:19:21.620Z,50.43
2022-11-18T13:22:12.837Z,51.13
2022-11-18T13:24:44.413Z,50.97
2022-11-18T13:27:37.214Z,51.08
2022-11-18T13:30:11.186Z,50.98
2022-11-18T13:32:43.571Z,51.18
2022-11-18T13:35:21.697Z,51.32
2022-11-18T13:37:54.312Z,51.78
2022-11-18T13:40:22.381Z,51.67
2022-11-18T13:42:49.014Z,51.57
2022-11-18T13:45:15.783Z,52.06
2022-11-18T13:47:47.833Z,51.90
2022-11-18T13:50:14.338Z,52.22
2022-11-18T13:52:44.397Z,52.06
2022-11-18T13:55:25.884Z,52.63
2022-11-18T13:57:59.136Z,52.93
2022-11-18T14:00:28.602Z,53.27
2022-11-18T14:03:04.355Z,53.15
2022-11-18T14:05:31.009Z,53.43
2022-11-18T14:08:04.974Z,53.87
2022-11-18T14:10:40.700Z,54.08
2022-11-18T14:13:17.418Z,54.43
2022-11-18T14:15:44.618Z,54.26
2022-11-18T14:18:40.156Z,54.87
2022-11-18T14:21:09.444Z,54.99
2022-11-18T14:23:37.009Z,55.33
2022-11-18T14:26:05.626Z,55.90
2022-11-18T14:28:34.152Z,56.76
2022-11-18T14:31:12.722Z,57.85
2022-11-18T14:33:39.547Z,58.40
2022-11-18T14:36:15.424Z,59.68
2022-11-18T14:41:47.478Z,58.73
2022-11-18T14:44:14.843Z,59.16
2022-11-18T14:46:43.449Z,59.59
2022-11-18T14:49:16.057Z,60.71
2022-11-18T14:51:42.985Z,61.09
2022-11-18T14:54:23.771Z,61.67
2022-11-18T14:56:54.738Z,63.10
2022-11-18T14:59:21.720Z,64.31
2022-11-18T15:01:48.453Z,65.74
2022-11-18T15:04:17.258Z,66.14
2022-11-18T15:06:44.023Z,65.62
2022-11-18T15:09:11.930Z,65.29
2022-11-18T15:11:38.543Z,66.22
2022-11-18T15:14:05.266Z,66.49
2022-11-18T15:16:34.549Z,65.16
2022-11-18T15:19:03.184Z,65.86
2022-11-18T15:21:29.976Z,66.91
2022-11-18T15:23:56.512Z,67.02
2022-11-18T15:26:43.230Z,66.02
2022-11-18T15:29:23.559Z,66.36
2022-11-18T15:31:50.482Z,65.21
2022-11-18T15:34:18.751Z,65.34
2022-11-18T15:36:46.003Z,64.94
2022-11-18T15:39:12.911Z,64.61
2022-11-18T15:41:40.729Z,65.17
2022-11-18T15:44:07.232Z,64.51
2022-11-18T15:46:33.773Z,63.99
2022-11-18T15:49:00.695Z,64.93
2022-11-18T15:51:28.854Z,65.41
2022-11-18T15:53:55.646Z,66.88
2022-11-18T15:56:30.243Z,66.47
2022-11-18T15:59:02.398Z,67.43
2022-11-18T16:01:31.955Z,68.54
2022-11-18T16:03:58.792Z,68.39
2022-11-18T16:06:25.810Z,67.84
2022-11-18T16:08:58.955Z,67.73
2022-11-18T16:11:46.121Z,69.21
2022-11-18T16:14:14.036Z,68.83
2022-11-18T16:16:42.022Z,69.90
2022-11-18T16:19:10.872Z,69.36
2022-11-18T16:21:39.310Z,69.45
2022-11-18T16:24:08.208Z,68.75
2022-11-18T16:26:35.268Z,68.58
2022-11-18T16:29:05.037Z,68.33
2022-11-18T16:31:40.912Z,68.06
2022-11-18T16:34:20.604Z,67.54
2022-11-18T16:36:49.547Z,66.82
2022-11-18T16:39:27.010Z,66.58
2022-11-18T16:42:03.859Z,66.60
2022-11-18T16:44:34.801Z,65.62
2022-11-18T16:47:01.618Z,66.27
2022-11-18T16:49:28.127Z,67.39
2022-11-18T16:51:55.950Z,66.48
2022-11-18T16:54:27.684Z,66.42
2022-11-18T16:56:55.521Z,67.45
2022-11-18T16:59:22.871Z,66.99
2022-11-18T17:01:50.752Z,67.32
2022-11-18T17:04:17.827Z,66.60
2022-11-18T17:06:46.185Z,66.38
2022-11-18T17:09:18.082Z,66.84
2022-11-18T17:11:45.055Z,67.02
2022-11-18T17:14:12.367Z,66.73
2022-11-18T17:16:39.060Z,65.64
2022-11-18T17:19:11.359Z,64.95
2022-11-18T17:21:44.289Z,65.30
2022-11-18T17:24:13.609Z,65.31
2022-11-18T17:26:40.402Z,64.80
2022-11-18T17:29:07.124Z,64.61
2022-11-18T17:31:33.972Z,64.31
2022-11-18T17:34:00.624Z,63.68
2022-11-18T17:36:27.425Z,64.66
2022-11-18T17:38:55.815Z,63.77
2022-11-18T17:41:43.446Z,64.27
2022-11-18T17:44:11.856Z,66.00
2022-11-18T17:46:38.895Z,66.94
2022-11-18T17:49:14.943Z,67.92
2022-11-18T17:51:41.728Z,67.49
2022-11-18T17:54:09.082Z,67.70
2022-11-18T17:56:35.854Z,68.06
2022-11-18T17:59:02.317Z,67.42
2022-11-18T18:01:28.876Z,69.30
2022-11-18T18:03:55.522Z,69.95
2022-11-18T18:06:22.773Z,70.42
2022-11-18T18:08:49.491Z,70.69
2022-11-18T18:11:17.836Z,71.64
2022-11-18T18:14:02.982Z,70.19
2022-11-18T18:16:31.378Z,70.70
2022-11-18T18:18:59.113Z,70.41
2022-11-18T18:21:26.185Z,70.54
2022-11-18T18:23:52.992Z,71.83
2022-11-18T18:26:19.807Z,71.41
2022-11-18T18:28:47.243Z,71.07
2022-11-18T18:31:15.437Z,72.41
2022-11-18T18:33:42.649Z,72.07
2022-11-18T18:36:12.949Z,71.58
2022-11-18T18:38:39.878Z,70.77
2022-11-18T18:41:10.098Z,70.28
2022-11-18T18:43:36.816Z,69.98
2022-11-18T18:46:24.544Z,70.69
2022-11-18T18:48:51.222Z,69.60
2022-11-18T18:51:18.574Z,69.23
2022-11-18T18:53:48.242Z,68.90
2022-11-18T18:56:15.361Z,68.77
2022-11-18T18:58:41.769Z,68.00
2022-11-18T19:01:13.634Z,68.60
2022-11-18T19:03:41.339Z,68.61
2022-11-18T19:06:50.086Z,68.10
2022-11-18T19:09:09.456Z,68.57
2022-11-18T19:11:55.546Z,69.11
2022-11-18T19:14:22.929Z,68.01
2022-11-18T19:16:50.408Z,67.33
2022-11-18T19:19:42.165Z,67.91
2022-11-18T19:22:10.310Z,68.47
2022-11-18T19:24:49.163Z,67.63
2022-11-18T19:27:19.916Z,68.60
2022-11-18T19:29:46.509Z,68.56
2022-11-18T19:32:13.601Z,69.06
2022-11-18T19:34:40.268Z,70.00
2022-11-18T19:37:06.783Z,68.26
2022-11-18T19:39:35.157Z,67.73
2022-11-18T19:42:01.638Z,67.37
2022-11-18T19:44:28.163Z,65.99
2022-11-18T19:46:54.675Z,66.25
2022-11-18T19:49:22.065Z,66.79
2022-11-18T19:51:48.967Z,65.78
2022-11-18T19:54:15.506Z,66.90
2022-11-18T19:56:42.062Z,66.68
2022-11-18T19:59:08.728Z,66.46
2022-11-18T20:01:35.321Z,65.94
2022-11-18T20:04:03.103Z,66.00
2022-11-18T20:06:29.711Z,66.06
2022-11-18T20:08:56.944Z,65.46
2022-11-18T20:11:24.746Z,64.72
2022-11-18T20:13:51.887Z,64.23
2022-11-18T20:16:24.095Z,64.36
2022-11-18T20:18:56.241Z,65.04
2022-11-18T20:21:23.783Z,64.99
2022-11-18T20:24:01.231Z,65.53
2022-11-18T20:26:31.767Z,64.89
2022-11-18T20:28:58.421Z,63.62
2022-11-18T20:31:26.262Z,63.90
2022-11-18T20:33:54.291Z,63.54
2022-11-18T20:36:23.106Z,62.56
2022-11-18T20:38:58.319Z,62.61
2022-11-18T20:41:25.940Z,61.72
2022-11-18T20:43:53.044Z,61.17
2022-11-18T20:46:21.823Z,61.62
2022-11-18T20:48:49.322Z,61.62
2022-11-18T20:51:23.535Z,61.76
2022-11-18T20:53:51.390Z,61.78
2022-11-18T20:56:20.360Z,61.15
2022-11-18T20:58:47.331Z,61.52
2022-11-18T21:01:19.726Z,61.96
2022-11-18T21:03:57.256Z,62.02
2022-11-18T21:06:26.301Z,62.86
2022-11-18T21:09:00.597Z,62.26
2022-11-18T21:11:27.617Z,62.32
2022-11-18T21:14:16.004Z,62.41
2022-11-18T21:16:45.611Z,62.71
2022-11-18T21:19:12.273Z,62.40
2022-11-18T21:21:44.970Z,62.00
2022-11-18T21:24:20.624Z,62.51
2022-11-18T21:26:48.570Z,61.72
2022-11-18T21:29:16.212Z,61.49
2022-11-18T21:31:43.636Z,62.74
2022-11-18T21:34:11.461Z,63.27
2022-11-18T21:36:44.311Z,62.50
2022-11-18T21:39:13.926Z,60.39
2022-11-18T21:41:40.632Z,61.79
2022-11-18T21:44:11.746Z,60.49
2022-11-18T21:46:40.298Z,60.58
2022-11-18T21:49:07.395Z,60.52
2022-11-18T21:51:34.702Z,59.84
2022-11-18T21:54:01.697Z,59.50
2022-11-18T21:56:33.246Z,60.70
2022-11-18T21:59:01.029Z,60.80
2022-11-18T22:01:30.227Z,61.42
2022-11-18T22:03:59.146Z,61.62
2022-11-18T22:06:29.575Z,61.02
2022-11-18T22:08:56.607Z,60.49
2022-11-18T22:11:24.120Z,60.32
2022-11-18T22:13:51.934Z,60.51
2022-11-18T22:16:20.328Z,61.21
2022-11-18T22:18:53.094Z,61.63
2022-11-18T22:21:21.690Z,60.84
2022-11-18T22:23:48.369Z,60.43
2022-11-18T22:26:17.998Z,59.57
2022-11-18T22:28:45.110Z,60.72
2022-11-18T22:31:17.169Z,60.86
2022-11-18T22:33:43.669Z,61.08
2022-11-18T22:36:15.268Z,61.17
2022-11-18T22:38:43.381Z,60.24
2022-11-18T22:41:30.811Z,61.09
2022-11-18T22:43:59.467Z,61.39
2022-11-18T22:46:29.214Z,59.98
2022-11-18T22:48:56.696Z,60.88
2022-11-18T22:51:23.456Z,60.47
2022-11-18T22:53:56.561Z,60.42
2022-11-18T22:56:31.098Z,60.57
2022-11-18T22:58:57.652Z,59.62
2022-11-18T23:01:24.436Z,59.39
2022-11-18T23:03:52.904Z,58.85
2022-11-18T23:06:19.543Z,58.84
2022-11-18T23:08:47.279Z,58.26
2022-11-18T23:11:36.104Z,57.50
2022-11-18T23:14:04.641Z,58.77
2022-11-18T23:16:33.033Z,59.04
2022-11-18T23:19:00.884Z,58.04
2022-11-18T23:21:27.374Z,57.22
2022-11-18T23:23:53.916Z,58.72
2022-11-18T23:26:20.711Z,58.71
2022-11-18T23:28:47.188Z,58.91
2022-11-18T23:31:19.415Z,59.20
2022-11-18T23:33:46.371Z,59.19
2022-11-18T23:36:15.603Z,59.11
2022-11-18T23:38:42.367Z,58.83
2022-11-18T23:41:11.157Z,59.18
2022-11-18T23:43:38.408Z,58.90
2022-11-18T23:46:06.241Z,58.98
2022-11-18T23:48:37.449Z,57.97
2022-11-18T23:51:09.332Z,58.26
2022-11-18T23:53:36.419Z,58.52
2022-11-18T23:56:06.048Z,58.69
2022-11-18T23:58:32.686Z,58.39
